sensor_id;sensor_type;location;lat;lon;timestamp;temperature;humidity
10848;DHT22;5477;48.806;9.154;2023-03-01T00:00:17;-0.90;99.90
10848;DHT22;5477;48.806;9.154;2023-03-01T00:02:45;-0.90;99.90
10848;DHT22;5477;48.806;9.154;2023-03-01T00:05:13;-0.90;99.90
10848;DHT22;5477;48.806;9.154;2023-03-01T00:07:41;-1.00;99.90
10848;DHT22;5477;48.806;9.154;2023-03-01T00:10:10;-1.00;99.90
10848;DHT22;5477;48.806;9.154;2023-03-01T00:12:38;-1.10;99.90
10848;DHT22;5477;48.806;9.154;2023-03-01T00:15:07;-1.00;99.90
10848;DHT22;5477;48.806;9.154;2023-03-01T00:17:37;-1.00;99.90
10848;DHT22;5477;48.806;9.154;2023-03-01T00:20:07;-0.90;99.90
10848;DHT22;5477;48.806;9.154;2023-03-01T00:22:36;-0.90;99.90
10848;DHT22;5477;48.806;9.154;2023-03-01T00:25:05;-0.90;99.90
10848;DHT22;5477;48.806;9.154;2023-03-01T00:27:33;-0.90;99.90
10848;DHT22;5477;48.806;9.154;2023-03-01T00:30:01;-1.00;99.90
10848;DHT22;5477;48.806;9.154;2023-03-01T00:32:29;-1.00;99.90
10848;DHT22;5477;48.806;9.154;2023-03-01T00:34:58;-1.10;99.90
10848;DHT22;5477;48.806;9.154;2023-03-01T00:37:26;-1.00;99.90
10848;DHT22;5477;48.806;9.154;2023-03-01T00:39:54;-1.20;99.90
10848;DHT22;5477;48.806;9.154;2023-03-01T00:42:22;-1.10;99.90
10848;DHT22;5477;48.806;9.154;2023-03-01T00:44:50;-1.10;99.90
10848;DHT22;5477;48.806;9.154;2023-03-01T00:47:18;-1.20;99.90
10848;DHT22;5477;48.806;9.154;2023-03-01T00:49:46;-1.10;99.90
10848;DHT22;5477;48.806;9.154;2023-03-01T00:52:16;-1.00;99.90
10848;DHT22;5477;48.806;9.154;2023-03-01T00:54:45;-1.00;99.90
10848;DHT22;5477;48.806;9.154;2023-03-01T00:57:15;-1.00;99.90
10848;DHT22;5477;48.806;9.154;2023-03-01T00:59:43;-0.90;99.90
10848;DHT22;5477;48.806;9.154;2023-03-01T01:02:11;-0.90;99.90
10848;DHT22;5477;48.806;9.154;2023-03-01T01:04:39;-0.80;99.90
10848;DHT22;5477;48.806;9.154;2023-03-01T01:07:07;-0.70;99.90
10848;DHT22;5477;48.806;9.154;2023-03-01T01:09:36;-0.70;99.90
10848;DHT22;5477;48.806;9.154;2023-03-01T01:12:05;-0.80;99.90
10848;DHT22;5477;48.806;9.154;2023-03-01T01:14:34;-0.90;99.90
10848;DHT22;5477;48.806;9.154;2023-03-01T01:17:02;-1.00;99.90
10848;DHT22;5477;48.806;9.154;2023-03-01T01:19:30;-1.10;99.90
10848;DHT22;5477;48.806;9.154;2023-03-01T01:21:58;-1.20;99.90
10848;DHT22;5477;48.806;9.154;2023-03-01T01:24:26;-1.20;99.90
10848;DHT22;5477;48.806;9.154;2023-03-01T01:26:55;-1.20;99.90
10848;DHT22;5477;48.806;9.154;2023-03-01T01:29:23;-1.10;99.90
10848;DHT22;5477;48.806;9.154;2023-03-01T01:31:51;-1.10;99.90
10848;DHT22;5477;48.806;9.154;2023-03-01T01:34:21;-1.10;99.90
10848;DHT22;5477;48.806;9.154;2023-03-01T01:36:50;-1.20;99.90
10848;DHT22;5477;48.806;9.154;2023-03-01T01:39:20;-1.20;99.90
10848;DHT22;5477;48.806;9.154;2023-03-01T01:41:48;-1.30;99.90
10848;DHT22;5477;48.806;9.154;2023-03-01T01:44:20;-1.40;99.90
10848;DHT22;5477;48.806;9.154;2023-03-01T01:46:53;-1.50;99.90
10848;DHT22;5477;48.806;9.154;2023-03-01T01:49:28;-1.60;99.90
10848;DHT22;5477;48.806;9.154;2023-03-01T01:52:02;-1.70;99.90
10848;DHT22;5477;48.806;9.154;2023-03-01T01:54:38;-1.70;99.90
10848;DHT22;5477;48.806;9.154;2023-03-01T01:57:12;-1.60;99.90
10848;DHT22;5477;48.806;9.154;2023-03-01T01:59:47;-1.60;99.90
10848;DHT22;5477;48.806;9.154;2023-03-01T02:02:16;-1.50;99.90
10848;DHT22;5477;48.806;9.154;2023-03-01T02:04:45;-1.60;99.90
10848;DHT22;5477;48.806;9.154;2023-03-01T02:07:15;-1.60;99.90
10848;DHT22;5477;48.806;9.154;2023-03-01T02:09:46;-1.50;99.90
10848;DHT22;5477;48.806;9.154;2023-03-01T02:12:17;-1.50;99.90
10848;DHT22;5477;48.806;9.154;2023-03-01T02:14:47;-1.50;99.90
10848;DHT22;5477;48.806;9.154;2023-03-01T02:17:17;-1.50;99.90
10848;DHT22;5477;48.806;9.154;2023-03-01T02:19:54;-1.50;99.90
10848;DHT22;5477;48.806;9.154;2023-03-01T02:22:27;-1.50;99.90
10848;DHT22;5477;48.806;9.154;2023-03-01T02:25:07;-1.40;99.90
10848;DHT22;5477;48.806;9.154;2023-03-01T02:27:47;-1.20;99.90
10848;DHT22;5477;48.806;9.154;2023-03-01T02:30:19;-1.20;99.90
10848;DHT22;5477;48.806;9.154;2023-03-01T02:32:49;-1.10;99.90
10848;DHT22;5477;48.806;9.154;2023-03-01T02:35:18;-1.10;99.90
10848;DHT22;5477;48.806;9.154;2023-03-01T02:37:48;-1.00;99.90
10848;DHT22;5477;48.806;9.154;2023-03-01T02:40:17;-0.90;99.90
10848;DHT22;5477;48.806;9.154;2023-03-01T02:42:51;-0.80;99.90
10848;DHT22;5477;48.806;9.154;2023-03-01T02:45:24;-0.80;99.90
10848;DHT22;5477;48.806;9.154;2023-03-01T02:47:53;-0.90;99.90
10848;DHT22;5477;48.806;9.154;2023-03-01T02:50:45;-0.90;99.90
10848;DHT22;5477;48.806;9.154;2023-03-01T02:53:19;-0.90;99.90
10848;DHT22;5477;48.806;9.154;2023-03-01T02:55:51;-0.90;99.90
10848;DHT22;5477;48.806;9.154;2023-03-01T02:58:19;-0.80;99.90
10848;DHT22;5477;48.806;9.154;2023-03-01T03:00:49;-0.80;99.90
10848;DHT22;5477;48.806;9.154;2023-03-01T03:03:20;-0.80;99.90
10848;DHT22;5477;48.806;9.154;2023-03-01T03:05:48;-0.70;99.90
10848;DHT22;5477;48.806;9.154;2023-03-01T03:08:16;-0.40;99.90
10848;DHT22;5477;48.806;9.154;2023-03-01T03:10:51;-0.30;99.90
10848;DHT22;5477;48.806;9.154;2023-03-01T03:13:19;-0.30;99.90
10848;DHT22;5477;48.806;9.154;2023-03-01T03:15:50;-0.30;99.90
10848;DHT22;5477;48.806;9.154;2023-03-01T03:18:18;-0.20;99.90
10848;DHT22;5477;48.806;9.154;2023-03-01T03:20:47;-0.20;99.90
10848;DHT22;5477;48.806;9.154;2023-03-01T03:23:19;-0.30;99.90
10848;DHT22;5477;48.806;9.154;2023-03-01T03:25:48;-0.30;99.90
10848;DHT22;5477;48.806;9.154;2023-03-01T03:28:16;-0.30;99.90
10848;DHT22;5477;48.806;9.154;2023-03-01T03:30:45;-0.30;99.90
10848;DHT22;5477;48.806;9.154;2023-03-01T03:33:14;-0.20;99.90
10848;DHT22;5477;48.806;9.154;2023-03-01T03:35:44;-0.20;99.90
10848;DHT22;5477;48.806;9.154;2023-03-01T03:38:14;-0.10;99.90
10848;DHT22;5477;48.806;9.154;2023-03-01T03:40:49;0.00;99.90
10848;DHT22;5477;48.806;9.154;2023-03-01T03:43:19;0.00;99.90
10848;DHT22;5477;48.806;9.154;2023-03-01T03:45:49;0.00;99.90
10848;DHT22;5477;48.806;9.154;2023-03-01T03:48:19;0.00;99.90
10848;DHT22;5477;48.806;9.154;2023-03-01T03:50:49;0.10;99.90
10848;DHT22;5477;48.806;9.154;2023-03-01T03:53:18;0.00;99.90
10848;DHT22;5477;48.806;9.154;2023-03-01T03:55:46;0.00;99.90
10848;DHT22;5477;48.806;9.154;2023-03-01T03:58:16;0.00;99.90
10848;DHT22;5477;48.806;9.154;2023-03-01T04:00:48;0.10;99.90
10848;DHT22;5477;48.806;9.154;2023-03-01T04:03:17;0.10;99.90
10848;DHT22;5477;48.806;9.154;2023-03-01T04:05:48;0.10;99.90
10848;DHT22;5477;48.806;9.154;2023-03-01T04:08:18;0.10;99.90
10848;DHT22;5477;48.806;9.154;2023-03-01T04:10:48;0.10;99.90
10848;DHT22;5477;48.806;9.154;2023-03-01T04:13:18;0.10;99.90
10848;DHT22;5477;48.806;9.154;2023-03-01T04:15:48;0.10;99.90
10848;DHT22;5477;48.806;9.154;2023-03-01T04:18:18;0.10;99.90
10848;DHT22;5477;48.806;9.154;2023-03-01T04:20:47;0.10;99.90
10848;DHT22;5477;48.806;9.154;2023-03-01T04:23:17;0.20;99.90
10848;DHT22;5477;48.806;9.154;2023-03-01T04:25:48;0.20;99.90
10848;DHT22;5477;48.806;9.154;2023-03-01T04:28:22;0.30;99.90
10848;DHT22;5477;48.806;9.154;2023-03-01T04:30:51;0.30;99.90
10848;DHT22;5477;48.806;9.154;2023-03-01T04:33:19;0.30;99.90
10848;DHT22;5477;48.806;9.154;2023-03-01T04:35:49;0.40;99.90
10848;DHT22;5477;48.806;9.154;2023-03-01T04:38:18;0.40;99.90
10848;DHT22;5477;48.806;9.154;2023-03-01T04:40:46;0.40;99.90
10848;DHT22;5477;48.806;9.154;2023-03-01T04:43:14;0.40;99.90
10848;DHT22;5477;48.806;9.154;2023-03-01T04:45:42;0.40;99.90
10848;DHT22;5477;48.806;9.154;2023-03-01T04:48:10;0.40;99.90
10848;DHT22;5477;48.806;9.154;2023-03-01T04:50:38;0.40;99.90
10848;DHT22;5477;48.806;9.154;2023-03-01T04:53:08;0.50;99.90
10848;DHT22;5477;48.806;9.154;2023-03-01T04:55:36;0.70;99.90
10848;DHT22;5477;48.806;9.154;2023-03-01T04:58:04;0.80;99.90
10848;DHT22;5477;48.806;9.154;2023-03-01T05:00:32;0.90;99.90
10848;DHT22;5477;48.806;9.154;2023-03-01T05:03:01;0.90;99.90
10848;DHT22;5477;48.806;9.154;2023-03-01T05:05:31;0.90;99.90
10848;DHT22;5477;48.806;9.154;2023-03-01T05:08:01;1.00;99.90
10848;DHT22;5477;48.806;9.154;2023-03-01T05:10:32;0.90;99.90
10848;DHT22;5477;48.806;9.154;2023-03-01T05:13:02;0.80;99.90
10848;DHT22;5477;48.806;9.154;2023-03-01T05:15:31;0.90;99.90
10848;DHT22;5477;48.806;9.154;2023-03-01T05:18:01;0.90;99.90
10848;DHT22;5477;48.806;9.154;2023-03-01T05:20:29;0.80;99.90
10848;DHT22;5477;48.806;9.154;2023-03-01T05:22:59;0.90;99.90
10848;DHT22;5477;48.806;9.154;2023-03-01T05:25:33;1.00;99.90
10848;DHT22;5477;48.806;9.154;2023-03-01T05:28:08;1.00;99.90
10848;DHT22;5477;48.806;9.154;2023-03-01T05:30:38;1.20;99.90
10848;DHT22;5477;48.806;9.154;2023-03-01T05:33:07;1.20;99.90
10848;DHT22;5477;48.806;9.154;2023-03-01T05:35:41;1.30;99.90
10848;DHT22;5477;48.806;9.154;2023-03-01T05:38:10;1.30;99.90
10848;DHT22;5477;48.806;9.154;2023-03-01T05:40:41;1.30;99.90
10848;DHT22;5477;48.806;9.154;2023-03-01T05:43:10;1.40;99.90
10848;DHT22;5477;48.806;9.154;2023-03-01T05:45:39;1.30;99.90
10848;DHT22;5477;48.806;9.154;2023-03-01T05:48:08;1.20;99.90
10848;DHT22;5477;48.806;9.154;2023-03-01T05:50:38;1.30;99.90
10848;DHT22;5477;48.806;9.154;2023-03-01T05:53:09;1.30;99.90
10848;DHT22;5477;48.806;9.154;2023-03-01T05:55:38;1.40;99.90
10848;DHT22;5477;48.806;9.154;2023-03-01T05:58:11;1.40;99.90
10848;DHT22;5477;48.806;9.154;2023-03-01T06:00:41;1.50;99.90
10848;DHT22;5477;48.806;9.154;2023-03-01T06:03:11;1.40;99.90
10848;DHT22;5477;48.806;9.154;2023-03-01T06:05:40;1.40;99.90
10848;DHT22;5477;48.806;9.154;2023-03-01T06:08:09;1.50;99.90
10848;DHT22;5477;48.806;9.154;2023-03-01T06:10:40;1.50;99.90
10848;DHT22;5477;48.806;9.154;2023-03-01T06:13:10;1.60;99.90
10848;DHT22;5477;48.806;9.154;2023-03-01T06:15:38;1.50;99.90
10848;DHT22;5477;48.806;9.154;2023-03-01T06:18:06;1.40;99.90
10848;DHT22;5477;48.806;9.154;2023-03-01T06:20:34;1.50;99.90
10848;DHT22;5477;48.806;9.154;2023-03-01T06:23:02;1.50;99.90
10848;DHT22;5477;48.806;9.154;2023-03-01T06:25:31;1.60;99.90
10848;DHT22;5477;48.806;9.154;2023-03-01T06:27:59;1.60;99.90
10848;DHT22;5477;48.806;9.154;2023-03-01T06:30:29;1.70;99.90
10848;DHT22;5477;48.806;9.154;2023-03-01T06:32:57;1.60;99.90
10848;DHT22;5477;48.806;9.154;2023-03-01T06:35:28;1.50;99.90
10848;DHT22;5477;48.806;9.154;2023-03-01T06:38:00;1.50;99.90
10848;DHT22;5477;48.806;9.154;2023-03-01T06:40:28;1.60;99.90
10848;DHT22;5477;48.806;9.154;2023-03-01T06:42:58;1.60;99.90
10848;DHT22;5477;48.806;9.154;2023-03-01T06:45:26;1.60;99.90
10848;DHT22;5477;48.806;9.154;2023-03-01T06:48:03;1.60;99.90
10848;DHT22;5477;48.806;9.154;2023-03-01T06:50:31;1.40;99.90
10848;DHT22;5477;48.806;9.154;2023-03-01T06:53:00;1.40;99.90
10848;DHT22;5477;48.806;9.154;2023-03-01T06:55:28;1.30;99.90
10848;DHT22;5477;48.806;9.154;2023-03-01T06:57:56;1.30;99.90
10848;DHT22;5477;48.806;9.154;2023-03-01T07:00:26;1.40;99.90
10848;DHT22;5477;48.806;9.154;2023-03-01T07:02:54;1.50;99.90
10848;DHT22;5477;48.806;9.154;2023-03-01T07:05:23;1.50;99.90
10848;DHT22;5477;48.806;9.154;2023-03-01T07:07:51;1.60;99.90
10848;DHT22;5477;48.806;9.154;2023-03-01T07:10:20;1.50;99.90
10848;DHT22;5477;48.806;9.154;2023-03-01T07:12:48;1.50;99.90
10848;DHT22;5477;48.806;9.154;2023-03-01T07:15:19;1.60;99.90
10848;DHT22;5477;48.806;9.154;2023-03-01T07:17:47;1.70;99.90
10848;DHT22;5477;48.806;9.154;2023-03-01T07:20:18;1.80;99.90
10848;DHT22;5477;48.806;9.154;2023-03-01T07:22:50;1.80;99.90
10848;DHT22;5477;48.806;9.154;2023-03-01T07:25:18;1.90;99.90
10848;DHT22;5477;48.806;9.154;2023-03-01T07:27:49;1.80;99.90
10848;DHT22;5477;48.806;9.154;2023-03-01T07:30:18;1.70;99.90
10848;DHT22;5477;48.806;9.154;2023-03-01T07:32:47;1.50;99.90
10848;DHT22;5477;48.806;9.154;2023-03-01T07:35:15;1.40;99.90
10848;DHT22;5477;48.806;9.154;2023-03-01T07:37:43;1.50;99.90
10848;DHT22;5477;48.806;9.154;2023-03-01T07:40:13;1.40;99.90
10848;DHT22;5477;48.806;9.154;2023-03-01T07:42:41;1.50;99.90
10848;DHT22;5477;48.806;9.154;2023-03-01T07:45:10;1.50;99.90
10848;DHT22;5477;48.806;9.154;2023-03-01T07:47:38;1.50;99.90
10848;DHT22;5477;48.806;9.154;2023-03-01T07:50:06;1.50;99.90
10848;DHT22;5477;48.806;9.154;2023-03-01T07:52:35;1.40;99.90
10848;DHT22;5477;48.806;9.154;2023-03-01T07:55:03;1.40;99.90
10848;DHT22;5477;48.806;9.154;2023-03-01T07:57:33;1.30;99.90
10848;DHT22;5477;48.806;9.154;2023-03-01T08:00:01;1.40;99.90
10848;DHT22;5477;48.806;9.154;2023-03-01T08:02:37;1.40;99.90
10848;DHT22;5477;48.806;9.154;2023-03-01T08:05:07;1.50;99.90
10848;DHT22;5477;48.806;9.154;2023-03-01T08:07:35;1.60;99.90
10848;DHT22;5477;48.806;9.154;2023-03-01T08:10:04;1.70;99.90
10848;DHT22;5477;48.806;9.154;2023-03-01T08:12:33;1.60;99.90
10848;DHT22;5477;48.806;9.154;2023-03-01T08:15:01;1.60;99.90
10848;DHT22;5477;48.806;9.154;2023-03-01T08:17:29;1.60;99.90
10848;DHT22;5477;48.806;9.154;2023-03-01T08:19:57;1.70;99.90
10848;DHT22;5477;48.806;9.154;2023-03-01T08:22:25;1.80;99.90
10848;DHT22;5477;48.806;9.154;2023-03-01T08:24:53;1.90;99.90
10848;DHT22;5477;48.806;9.154;2023-03-01T08:27:22;2.10;99.90
10848;DHT22;5477;48.806;9.154;2023-03-01T08:29:52;2.10;99.90
10848;DHT22;5477;48.806;9.154;2023-03-01T08:32:20;2.30;99.90
10848;DHT22;5477;48.806;9.154;2023-03-01T08:34:48;2.40;99.90
10848;DHT22;5477;48.806;9.154;2023-03-01T08:37:17;2.50;99.90
10848;DHT22;5477;48.806;9.154;2023-03-01T08:39:45;2.50;99.90
10848;DHT22;5477;48.806;9.154;2023-03-01T08:42:13;2.50;99.90
10848;DHT22;5477;48.806;9.154;2023-03-01T08:44:41;2.70;99.90
10848;DHT22;5477;48.806;9.154;2023-03-01T08:47:14;2.90;99.90
10848;DHT22;5477;48.806;9.154;2023-03-01T08:49:42;3.00;99.90
10848;DHT22;5477;48.806;9.154;2023-03-01T08:52:10;3.00;99.90
10848;DHT22;5477;48.806;9.154;2023-03-01T08:54:38;3.10;99.90
10848;DHT22;5477;48.806;9.154;2023-03-01T08:57:06;3.20;99.90
10848;DHT22;5477;48.806;9.154;2023-03-01T08:59:36;3.40;99.90
10848;DHT22;5477;48.806;9.154;2023-03-01T09:02:05;3.40;99.90
10848;DHT22;5477;48.806;9.154;2023-03-01T09:04:34;3.60;99.90
10848;DHT22;5477;48.806;9.154;2023-03-01T09:07:03;3.70;99.90
10848;DHT22;5477;48.806;9.154;2023-03-01T09:09:31;3.80;99.90
10848;DHT22;5477;48.806;9.154;2023-03-01T09:11:59;3.80;99.90
10848;DHT22;5477;48.806;9.154;2023-03-01T09:14:27;3.90;99.90
10848;DHT22;5477;48.806;9.154;2023-03-01T09:16:55;3.80;99.90
10848;DHT22;5477;48.806;9.154;2023-03-01T09:19:23;3.90;99.90
10848;DHT22;5477;48.806;9.154;2023-03-01T09:21:54;4.00;99.90
10848;DHT22;5477;48.806;9.154;2023-03-01T09:24:24;4.00;99.90
10848;DHT22;5477;48.806;9.154;2023-03-01T09:26:56;4.10;99.90
10848;DHT22;5477;48.806;9.154;2023-03-01T09:29:24;4.30;99.90
10848;DHT22;5477;48.806;9.154;2023-03-01T09:31:52;4.50;99.90
10848;DHT22;5477;48.806;9.154;2023-03-01T09:34:22;4.70;99.90
10848;DHT22;5477;48.806;9.154;2023-03-01T09:36:50;4.80;99.90
10848;DHT22;5477;48.806;9.154;2023-03-01T09:39:20;4.90;99.90
10848;DHT22;5477;48.806;9.154;2023-03-01T09:41:59;5.00;99.90
10848;DHT22;5477;48.806;9.154;2023-03-01T09:44:32;5.00;99.90
10848;DHT22;5477;48.806;9.154;2023-03-01T09:47:02;5.10;99.90
10848;DHT22;5477;48.806;9.154;2023-03-01T09:49:33;5.30;99.90
10848;DHT22;5477;48.806;9.154;2023-03-01T09:52:09;5.50;99.90
10848;DHT22;5477;48.806;9.154;2023-03-01T09:54:41;5.80;99.90
10848;DHT22;5477;48.806;9.154;2023-03-01T09:57:18;5.90;99.90
10848;DHT22;5477;48.806;9.154;2023-03-01T10:00:03;6.10;99.90
10848;DHT22;5477;48.806;9.154;2023-03-01T10:02:40;6.50;99.80
10848;DHT22;5477;48.806;9.154;2023-03-01T10:05:22;6.80;99.00
10848;DHT22;5477;48.806;9.154;2023-03-01T10:08:02;6.80;98.40
10848;DHT22;5477;48.806;9.154;2023-03-01T10:10:36;6.80;98.30
10848;DHT22;5477;48.806;9.154;2023-03-01T10:13:14;6.80;98.30
10848;DHT22;5477;48.806;9.154;2023-03-01T10:15:48;7.10;98.00
10848;DHT22;5477;48.806;9.154;2023-03-01T10:18:23;7.20;97.20
10848;DHT22;5477;48.806;9.154;2023-03-01T10:20:56;7.30;97.10
10848;DHT22;5477;48.806;9.154;2023-03-01T10:23:25;7.40;96.70
10848;DHT22;5477;48.806;9.154;2023-03-01T10:26:09;7.40;96.50
10848;DHT22;5477;48.806;9.154;2023-03-01T10:28:48;7.60;96.20
10848;DHT22;5477;48.806;9.154;2023-03-01T10:31:19;8.00;95.60
10848;DHT22;5477;48.806;9.154;2023-03-01T10:33:49;8.40;94.80
10848;DHT22;5477;48.806;9.154;2023-03-01T10:36:21;8.70;94.20
10848;DHT22;5477;48.806;9.154;2023-03-01T10:38:52;9.20;93.00
10848;DHT22;5477;48.806;9.154;2023-03-01T10:41:22;9.50;92.20
10848;DHT22;5477;48.806;9.154;2023-03-01T10:43:53;9.80;91.30
10848;DHT22;5477;48.806;9.154;2023-03-01T10:46:26;10.30;90.20
10848;DHT22;5477;48.806;9.154;2023-03-01T10:49:14;10.60;88.00
10848;DHT22;5477;48.806;9.154;2023-03-01T10:51:44;10.80;83.70
10848;DHT22;5477;48.806;9.154;2023-03-01T10:54:18;10.80;82.50
10848;DHT22;5477;48.806;9.154;2023-03-01T10:56:50;10.30;83.40
10848;DHT22;5477;48.806;9.154;2023-03-01T10:59:25;10.30;83.10
10848;DHT22;5477;48.806;9.154;2023-03-01T11:02:14;10.60;82.90
10848;DHT22;5477;48.806;9.154;2023-03-01T11:04:59;10.40;81.50
10848;DHT22;5477;48.806;9.154;2023-03-01T11:07:28;10.50;81.50
10848;DHT22;5477;48.806;9.154;2023-03-01T11:09:56;10.50;80.30
10848;DHT22;5477;48.806;9.154;2023-03-01T11:12:25;10.40;81.30
10848;DHT22;5477;48.806;9.154;2023-03-01T11:14:56;10.50;80.20
10848;DHT22;5477;48.806;9.154;2023-03-01T11:17:27;10.40;81.40
10848;DHT22;5477;48.806;9.154;2023-03-01T11:20:06;11.10;79.80
10848;DHT22;5477;48.806;9.154;2023-03-01T11:22:46;11.40;77.50
10848;DHT22;5477;48.806;9.154;2023-03-01T11:25:15;11.60;76.10
10848;DHT22;5477;48.806;9.154;2023-03-01T11:27:47;11.60;75.80
10848;DHT22;5477;48.806;9.154;2023-03-01T11:30:19;11.50;75.60
10848;DHT22;5477;48.806;9.154;2023-03-01T11:32:56;12.00;74.30
10848;DHT22;5477;48.806;9.154;2023-03-01T11:35:29;11.90;73.30
10848;DHT22;5477;48.806;9.154;2023-03-01T11:38:09;12.00;72.50
10848;DHT22;5477;48.806;9.154;2023-03-01T11:40:45;12.10;72.60
10848;DHT22;5477;48.806;9.154;2023-03-01T11:43:21;12.10;71.60
10848;DHT22;5477;48.806;9.154;2023-03-01T11:46:02;12.20;73.80
10848;DHT22;5477;48.806;9.154;2023-03-01T11:48:49;12.10;71.20
10848;DHT22;5477;48.806;9.154;2023-03-01T11:51:25;11.40;72.20
10848;DHT22;5477;48.806;9.154;2023-03-01T11:54:13;11.20;73.70
10848;DHT22;5477;48.806;9.154;2023-03-01T11:56:46;11.40;73.70
10848;DHT22;5477;48.806;9.154;2023-03-01T12:02:45;11.60;72.90
10848;DHT22;5477;48.806;9.154;2023-03-01T12:05:27;11.80;71.80
10848;DHT22;5477;48.806;9.154;2023-03-01T12:08:06;12.30;71.40
10848;DHT22;5477;48.806;9.154;2023-03-01T12:10:42;12.10;70.10
10848;DHT22;5477;48.806;9.154;2023-03-01T12:16:39;11.70;71.60
10848;DHT22;5477;48.806;9.154;2023-03-01T12:19:30;11.40;71.40
10848;DHT22;5477;48.806;9.154;2023-03-01T12:22:16;11.20;72.30
10848;DHT22;5477;48.806;9.154;2023-03-01T12:25:21;11.50;72.30
10848;DHT22;5477;48.806;9.154;2023-03-01T12:28:19;11.70;71.80
10848;DHT22;5477;48.806;9.154;2023-03-01T12:31:31;11.60;71.40
10848;DHT22;5477;48.806;9.154;2023-03-01T12:34:06;11.50;71.30
10848;DHT22;5477;48.806;9.154;2023-03-01T12:36:52;11.70;71.10
10848;DHT22;5477;48.806;9.154;2023-03-01T12:39:38;11.90;70.50
10848;DHT22;5477;48.806;9.154;2023-03-01T12:42:14;11.80;70.80
10848;DHT22;5477;48.806;9.154;2023-03-01T12:45:01;12.00;70.20
10848;DHT22;5477;48.806;9.154;2023-03-01T12:47:52;12.10;70.60
10848;DHT22;5477;48.806;9.154;2023-03-01T12:50:25;12.20;70.90
10848;DHT22;5477;48.806;9.154;2023-03-01T12:52:56;12.40;70.60
10848;DHT22;5477;48.806;9.154;2023-03-01T12:55:29;12.50;69.00
10848;DHT22;5477;48.806;9.154;2023-03-01T12:58:04;12.10;69.00
10848;DHT22;5477;48.806;9.154;2023-03-01T13:00:39;11.60;70.60
10848;DHT22;5477;48.806;9.154;2023-03-01T13:03:19;11.60;72.10
10848;DHT22;5477;48.806;9.154;2023-03-01T13:06:01;11.50;71.00
10848;DHT22;5477;48.806;9.154;2023-03-01T13:08:37;11.10;72.00
10848;DHT22;5477;48.806;9.154;2023-03-01T13:11:15;10.90;73.30
10848;DHT22;5477;48.806;9.154;2023-03-01T13:13:43;10.60;73.80
10848;DHT22;5477;48.806;9.154;2023-03-01T13:16:39;10.40;74.70
10848;DHT22;5477;48.806;9.154;2023-03-01T13:19:14;10.30;75.30
10848;DHT22;5477;48.806;9.154;2023-03-01T13:21:43;10.30;75.80
10848;DHT22;5477;48.806;9.154;2023-03-01T13:24:26;10.20;75.70
10848;DHT22;5477;48.806;9.154;2023-03-01T13:27:20;10.20;76.20
10848;DHT22;5477;48.806;9.154;2023-03-01T13:29:52;9.80;77.80
10848;DHT22;5477;48.806;9.154;2023-03-01T13:32:22;9.60;78.30
10848;DHT22;5477;48.806;9.154;2023-03-01T13:35:42;9.50;79.20
10848;DHT22;5477;48.806;9.154;2023-03-01T13:38:39;9.50;79.70
10848;DHT22;5477;48.806;9.154;2023-03-01T13:41:13;9.60;79.80
10848;DHT22;5477;48.806;9.154;2023-03-01T13:43:43;9.50;80.40
10848;DHT22;5477;48.806;9.154;2023-03-01T13:46:16;9.50;80.50
10848;DHT22;5477;48.806;9.154;2023-03-01T13:48:48;9.70;80.70
10848;DHT22;5477;48.806;9.154;2023-03-01T13:51:23;9.80;80.60
10848;DHT22;5477;48.806;9.154;2023-03-01T13:53:52;9.70;80.00
10848;DHT22;5477;48.806;9.154;2023-03-01T13:56:24;9.60;80.20
10848;DHT22;5477;48.806;9.154;2023-03-01T13:58:54;9.60;80.60
10848;DHT22;5477;48.806;9.154;2023-03-01T14:01:26;9.80;80.40
10848;DHT22;5477;48.806;9.154;2023-03-01T14:03:57;10.10;79.00
10848;DHT22;5477;48.806;9.154;2023-03-01T14:06:29;10.20;78.00
10848;DHT22;5477;48.806;9.154;2023-03-01T14:09:04;10.20;78.00
10848;DHT22;5477;48.806;9.154;2023-03-01T14:14:48;10.50;77.40
10848;DHT22;5477;48.806;9.154;2023-03-01T14:20:25;10.30;77.80
10848;DHT22;5477;48.806;9.154;2023-03-01T14:22:58;10.40;77.60
10848;DHT22;5477;48.806;9.154;2023-03-01T14:25:28;10.50;77.70
10848;DHT22;5477;48.806;9.154;2023-03-01T14:28:00;10.80;77.50
10848;DHT22;5477;48.806;9.154;2023-03-01T14:30:34;11.40;76.50
10848;DHT22;5477;48.806;9.154;2023-03-01T14:33:17;11.70;75.20
10848;DHT22;5477;48.806;9.154;2023-03-01T14:35:53;11.80;74.30
10848;DHT22;5477;48.806;9.154;2023-03-01T14:38:28;11.80;74.20
10848;DHT22;5477;48.806;9.154;2023-03-01T14:40:59;12.00;73.90
10848;DHT22;5477;48.806;9.154;2023-03-01T14:43:32;11.70;74.30
10848;DHT22;5477;48.806;9.154;2023-03-01T14:46:01;11.70;75.60
10848;DHT22;5477;48.806;9.154;2023-03-01T14:48:29;12.10;74.00
10848;DHT22;5477;48.806;9.154;2023-03-01T14:50:57;12.10;72.80
10848;DHT22;5477;48.806;9.154;2023-03-01T14:53:29;12.00;73.60
10848;DHT22;5477;48.806;9.154;2023-03-01T14:56:16;12.10;73.50
10848;DHT22;5477;48.806;9.154;2023-03-01T14:58:46;12.30;73.20
10848;DHT22;5477;48.806;9.154;2023-03-01T15:01:19;12.50;72.30
10848;DHT22;5477;48.806;9.154;2023-03-01T15:03:48;12.50;72.20
10848;DHT22;5477;48.806;9.154;2023-03-01T15:06:19;12.30;71.80
10848;DHT22;5477;48.806;9.154;2023-03-01T15:08:51;12.10;72.10
10848;DHT22;5477;48.806;9.154;2023-03-01T15:11:22;11.70;73.00
10848;DHT22;5477;48.806;9.154;2023-03-01T15:13:52;11.90;73.10
10848;DHT22;5477;48.806;9.154;2023-03-01T15:16:23;12.00;72.80
10848;DHT22;5477;48.806;9.154;2023-03-01T15:18:55;11.90;73.10
10848;DHT22;5477;48.806;9.154;2023-03-01T15:21:25;12.10;72.50
10848;DHT22;5477;48.806;9.154;2023-03-01T15:24:01;11.90;72.80
10848;DHT22;5477;48.806;9.154;2023-03-01T15:26:33;11.80;72.90
10848;DHT22;5477;48.806;9.154;2023-03-01T15:29:02;11.40;73.30
10848;DHT22;5477;48.806;9.154;2023-03-01T15:31:32;10.80;74.80
10848;DHT22;5477;48.806;9.154;2023-03-01T15:34:21;10.20;76.20
10848;DHT22;5477;48.806;9.154;2023-03-01T15:36:50;9.70;79.40
10848;DHT22;5477;48.806;9.154;2023-03-01T15:39:37;9.40;80.90
10848;DHT22;5477;48.806;9.154;2023-03-01T15:42:09;9.10;82.00
10848;DHT22;5477;48.806;9.154;2023-03-01T15:44:39;8.90;82.80
10848;DHT22;5477;48.806;9.154;2023-03-01T15:47:23;8.80;83.60
10848;DHT22;5477;48.806;9.154;2023-03-01T15:49:53;8.80;83.80
10848;DHT22;5477;48.806;9.154;2023-03-01T15:52:24;8.70;84.80
10848;DHT22;5477;48.806;9.154;2023-03-01T15:54:59;8.60;85.10
10848;DHT22;5477;48.806;9.154;2023-03-01T15:57:28;8.70;85.30
10848;DHT22;5477;48.806;9.154;2023-03-01T15:59:56;8.60;85.40
10848;DHT22;5477;48.806;9.154;2023-03-01T16:02:24;8.50;85.80
10848;DHT22;5477;48.806;9.154;2023-03-01T16:04:52;8.40;85.80
10848;DHT22;5477;48.806;9.154;2023-03-01T16:07:23;8.30;85.60
10848;DHT22;5477;48.806;9.154;2023-03-01T16:09:51;8.20;86.30
10848;DHT22;5477;48.806;9.154;2023-03-01T16:12:20;8.10;86.60
10848;DHT22;5477;48.806;9.154;2023-03-01T16:14:48;8.00;87.30
10848;DHT22;5477;48.806;9.154;2023-03-01T16:17:16;8.10;87.90
10848;DHT22;5477;48.806;9.154;2023-03-01T16:19:44;8.10;88.10
10848;DHT22;5477;48.806;9.154;2023-03-01T16:22:12;8.00;88.50
10848;DHT22;5477;48.806;9.154;2023-03-01T16:24:40;7.90;88.60
10848;DHT22;5477;48.806;9.154;2023-03-01T16:27:08;7.90;88.60
10848;DHT22;5477;48.806;9.154;2023-03-01T16:29:37;7.80;88.90
10848;DHT22;5477;48.806;9.154;2023-03-01T16:32:05;7.80;89.20
10848;DHT22;5477;48.806;9.154;2023-03-01T16:34:33;7.70;89.80
10848;DHT22;5477;48.806;9.154;2023-03-01T16:37:01;7.70;90.00